Time;durP1;ratioP1;P1;durP2;ratioP2;P2;SDS_P1;SDS_P2;PMS_P1;PMS_P2;Temp;Humidity;BMP_temperature;BMP_pressure;BME280_temperature;BME280_humidity;BME280_pressure;Samples;Min_cycle;Max_cycle;Signal;HPM_P1;HPM_P2
2023/07/03 00:01:41;;;;;;;16.65;4.40;;;;;;;18.75;47.03;100905.59;5059136;28;20025;-71
2023/07/03 00:04:10;;;;;;;14.20;4.35;;;;;;;18.73;47.02;100916.31;5066390;28;20841;-71
2023/07/03 00:06:36;;;;;;;14.40;4.20;;;;;;;18.70;47.53;100919.69;5066612;28;20029;-70
2023/07/03 00:09:02;;;;;;;13.93;4.40;;;;;;;18.69;47.13;100913.22;5068753;28;20566;-71
2023/07/03 00:11:28;;;;;;;15.25;4.32;;;;;;;18.61;47.32;100914.75;5070934;28;20043;-70
2023/07/03 00:13:53;;;;;;;13.57;4.45;;;;;;;18.63;47.37;100912.50;5060218;28;20426;-70
2023/07/03 00:16:18;;;;;;;14.18;4.18;;;;;;;18.61;47.44;100911.13;5070712;28;20396;-71
2023/07/03 00:18:44;;;;;;;14.55;5.07;;;;;;;18.61;47.44;100916.75;5060573;28;20395;-71
2023/07/03 00:21:10;;;;;;;15.20;3.95;;;;;;;18.58;47.56;100908.91;5054490;28;20044;-70
2023/07/03 00:23:35;;;;;;;11.68;3.90;;;;;;;18.61;47.63;100913.94;5070175;28;20078;-70
2023/07/03 00:26:01;;;;;;;17.85;4.60;;;;;;;18.66;47.56;100896.97;5071694;28;20021;-71
2023/07/03 00:28:26;;;;;;;15.88;4.30;;;;;;;18.68;47.63;100905.13;5060325;28;20024;-71
2023/07/03 00:30:52;;;;;;;18.65;4.65;;;;;;;18.62;47.57;100907.16;5070591;28;20054;-70
2023/07/03 00:33:17;;;;;;;15.65;4.22;;;;;;;18.56;47.92;100914.03;5062314;28;20025;-71
2023/07/03 00:35:42;;;;;;;16.05;4.35;;;;;;;18.52;48.06;100901.72;5062447;28;20033;-71
2023/07/03 00:38:08;;;;;;;16.05;4.50;;;;;;;18.57;47.62;100907.25;5064890;28;20440;-71
2023/07/03 00:40:33;;;;;;;14.90;4.30;;;;;;;18.51;48.15;100900.03;5079891;28;20123;-71
2023/07/03 00:43:00;;;;;;;21.80;5.05;;;;;;;18.57;48.37;100910.06;5090654;28;20035;-70
2023/07/03 00:45:26;;;;;;;16.55;4.55;;;;;;;18.56;48.25;100908.41;5054391;28;20036;-70
2023/07/03 00:47:53;;;;;;;15.30;4.20;;;;;;;18.55;48.64;100903.91;5057469;28;20033;-70
2023/07/03 00:50:18;;;;;;;15.88;4.60;;;;;;;18.56;48.56;100902.78;5068037;28;20034;-70
2023/07/03 00:52:48;;;;;;;18.05;4.55;;;;;;;18.51;48.48;100897.22;5051091;28;20036;-71
2023/07/03 00:55:14;;;;;;;15.13;4.53;;;;;;;18.51;48.60;100906.50;5065349;28;20044;-70
2023/07/03 00:57:40;;;;;;;14.20;4.10;;;;;;;18.54;48.70;100905.03;5050360;28;20017;-71
2023/07/03 01:00:06;;;;;;;18.08;4.10;;;;;;;18.44;48.74;100899.59;5057715;28;20064;-70
2023/07/03 01:02:42;;;;;;;19.02;4.78;;;;;;;18.44;48.87;100897.63;5069850;28;20033;-70
2023/07/03 01:05:22;;;;;;;13.43;4.00;;;;;;;18.51;48.85;100900.88;5068091;28;20032;-70
2023/07/03 01:07:48;;;;;;;13.10;4.30;;;;;;;18.38;48.92;100890.41;5061395;28;20036;-70
2023/07/03 01:10:19;;;;;;;15.30;4.20;;;;;;;18.42;49.03;100890.63;5069674;28;20025;-70
2023/07/03 01:12:47;;;;;;;18.92;4.90;;;;;;;18.33;49.30;100894.13;5065661;28;20044;-70
2023/07/03 01:15:17;;;;;;;15.65;4.05;;;;;;;18.39;49.31;100892.91;5074050;28;20044;-70
2023/07/03 01:17:46;;;;;;;17.50;4.22;;;;;;;18.26;49.37;100898.47;5074830;28;20028;-70
2023/07/03 01:20:15;;;;;;;18.25;4.72;;;;;;;18.34;49.55;100901.41;5072384;28;20068;-70
2023/07/03 01:22:49;;;;;;;14.20;4.18;;;;;;;18.24;49.78;100895.97;5081923;28;20451;-70
2023/07/03 01:25:19;;;;;;;14.13;4.15;;;;;;;18.24;49.89;100898.78;5095147;28;20039;-70
2023/07/03 01:27:50;;;;;;;16.00;4.18;;;;;;;18.21;50.01;100904.16;5064338;28;20086;-70
2023/07/03 01:30:18;;;;;;;21.35;4.95;;;;;;;18.17;50.34;100900.28;5069210;28;20059;-70
2023/07/03 01:32:46;;;;;;;20.45;4.63;;;;;;;18.18;50.52;100897.16;5065409;28;20056;-71
2023/07/03 01:35:13;;;;;;;25.38;4.72;;;;;;;18.15;50.52;100895.78;5072120;28;20025;-70
2023/07/03 01:37:41;;;;;;;14.18;4.32;;;;;;;18.12;50.47;100887.97;5071658;28;20081;-70
2023/07/03 01:40:10;;;;;;;18.38;5.07;;;;;;;18.12;50.71;100896.41;5053417;28;20024;-70
2023/07/03 01:42:38;;;;;;;21.67;4.50;;;;;;;18.14;50.75;100898.91;5059280;28;20029;-71
2023/07/03 01:45:04;;;;;;;16.13;4.28;;;;;;;18.18;50.65;100891.53;5054164;28;20028;-70
2023/07/03 01:47:30;;;;;;;18.52;4.43;;;;;;;18.09;51.13;100887.75;5069204;28;20033;-71
2023/07/03 01:49:56;;;;;;;18.00;4.90;;;;;;;18.07;51.14;100890.00;5057713;28;20025;-70
2023/07/03 01:52:27;;;;;;;22.65;5.10;;;;;;;18.13;50.86;100884.03;5054346;28;20025;-70
2023/07/03 01:55:10;;;;;;;19.65;4.88;;;;;;;18.10;51.06;100889.41;5053506;28;20033;-70
2023/07/03 01:57:41;;;;;;;;;;;;;;;18.31;50.13;100888.00;5065886;28;20067;-70
2023/07/03 02:00:12;;;;;;;19.42;4.78;;;;;;;18.09;51.20;100873.72;5059050;28;19932;-70
2023/07/03 02:02:42;;;;;;;14.98;4.68;;;;;;;18.03;51.45;100881.34;5071941;28;20073;-71
2023/07/03 02:05:13;;;;;;;19.15;4.90;;;;;;;18.08;51.67;100886.09;5086242;28;20028;-70
2023/07/03 02:07:41;;;;;;;21.73;4.97;;;;;;;18.01;51.78;100880.00;5067128;28;20107;-71
2023/07/03 02:10:07;;;;;;;15.45;4.28;;;;;;;18.06;51.80;100871.50;5059434;28;20036;-70
2023/07/03 02:12:32;;;;;;;17.33;5.03;;;;;;;17.99;52.09;100882.25;5053613;28;20021;-71
2023/07/03 02:15:03;;;;;;;19.05;4.53;;;;;;;17.99;52.05;100888.72;5057130;28;20037;-70
2023/07/03 02:17:29;;;;;;;21.77;5.10;;;;;;;17.94;52.22;100874.75;5056083;28;20025;-71
2023/07/03 02:19:54;;;;;;;19.35;5.03;;;;;;;17.96;52.37;100866.88;5073505;28;20125;-70
2023/07/03 02:22:20;;;;;;;20.15;5.32;;;;;;;17.87;52.57;100875.13;5083618;28;20559;-70
2023/07/03 02:24:45;;;;;;;21.60;5.43;;;;;;;17.87;52.77;100872.31;5093494;28;20043;-70
2023/07/03 02:27:10;;;;;;;25.58;5.22;;;;;;;17.88;52.83;100867.53;5070599;28;20024;-70
2023/07/03 02:29:36;;;;;;;18.92;4.18;;;;;;;17.78;53.14;100876.09;5052844;28;20373;-72
2023/07/03 02:32:01;;;;;;;21.98;5.38;;;;;;;17.81;53.31;100869.91;5073196;28;20035;-71
2023/07/03 02:34:28;;;;;;;19.70;5.55;;;;;;;17.75;53.57;100871.91;5069694;28;20027;-71
2023/07/03 02:36:59;;;;;;;22.38;5.70;;;;;;;17.74;53.97;100869.38;5072231;28;20025;-71
2023/07/03 02:39:24;;;;;;;26.40;5.07;;;;;;;17.75;53.87;100866.28;5073023;28;20064;-71
2023/07/03 02:41:50;;;;;;;26.30;5.68;;;;;;;17.75;54.18;100865.47;5071855;28;20125;-71
2023/07/03 02:44:15;;;;;;;24.48;5.32;;;;;;;17.71;54.13;100868.00;5069437;28;20032;-71
2023/07/03 02:46:41;;;;;;;19.88;4.78;;;;;;;17.73;54.25;100862.09;5069582;28;20039;-70
2023/07/03 02:49:07;;;;;;;19.95;5.53;;;;;;;17.64;54.54;100859.97;5071600;28;20028;-71
2023/07/03 02:51:32;;;;;;;23.08;5.45;;;;;;;17.61;54.73;100859.72;5076867;28;20040;-71
2023/07/03 02:53:58;;;;;;;21.88;5.03;;;;;;;17.62;54.81;100856.63;5071903;28;20033;-71
2023/07/03 02:56:23;;;;;;;21.77;5.15;;;;;;;17.57;55.06;100861.47;5070175;28;20028;-71
2023/07/03 02:58:48;;;;;;;25.48;6.00;;;;;;;17.64;55.12;100856.31;5069192;28;20032;-71
2023/07/03 03:01:14;;;;;;;22.25;5.03;;;;;;;17.63;55.16;100858.28;5059894;28;20392;-71
2023/07/03 03:03:40;;;;;;;20.35;5.30;;;;;;;17.52;55.14;100856.72;5072192;28;20023;-70
2023/07/03 03:06:05;;;;;;;27.73;6.10;;;;;;;17.49;55.75;100859.28;5072302;28;20032;-71
2023/07/03 03:08:30;;;;;;;22.65;5.43;;;;;;;17.46;55.76;100862.72;5072845;28;20112;-70
2023/07/03 03:10:56;;;;;;;24.63;5.88;;;;;;;17.38;56.14;100862.25;5063569;28;20064;-71
2023/07/03 03:13:21;;;;;;;25.40;6.03;;;;;;;17.36;56.31;100858.06;5071709;28;20024;-71
2023/07/03 03:15:46;;;;;;;19.73;5.88;;;;;;;17.36;56.35;100855.25;5078911;28;20036;-71
2023/07/03 03:18:12;;;;;;;22.48;5.55;;;;;;;17.31;56.75;100855.31;5092499;28;20059;-70
2023/07/03 03:20:37;;;;;;;24.73;5.85;;;;;;;17.28;56.71;100856.75;5061487;28;20024;-70
2023/07/03 03:23:03;;;;;;;28.60;6.05;;;;;;;17.26;56.88;100856.22;5063477;28;20488;-71
2023/07/03 03:25:28;;;;;;;18.13;5.32;;;;;;;17.31;57.00;100844.94;5067308;28;20583;-71
2023/07/03 03:27:54;;;;;;;30.15;6.28;;;;;;;17.33;56.94;100853.91;5071023;28;20369;-71
2023/07/03 03:30:20;;;;;;;28.35;5.80;;;;;;;17.32;57.17;100849.41;5069539;28;20136;-71
2023/07/03 03:32:45;;;;;;;25.88;5.93;;;;;;;17.32;57.18;100848.56;5054396;28;20143;-70
2023/07/03 03:35:11;;;;;;;23.50;5.63;;;;;;;17.31;57.26;100849.72;5070013;28;20032;-71
2023/07/03 03:37:36;;;;;;;22.40;6.00;;;;;;;17.24;57.62;100852.03;5071250;28;20035;-71
2023/07/03 03:40:03;;;;;;;27.10;6.50;;;;;;;17.14;58.16;100844.56;5071273;28;20077;-71
2023/07/03 03:42:29;;;;;;;22.73;5.65;;;;;;;17.14;58.10;100838.97;5068056;28;20028;-71
2023/07/03 03:44:54;;;;;;;26.02;5.55;;;;;;;17.12;58.37;100844.84;5064921;28;20170;-71
2023/07/03 03:47:20;;;;;;;23.35;6.05;;;;;;;17.17;58.33;100846.75;5079058;28;20033;-71
2023/07/03 03:49:45;;;;;;;23.80;5.97;;;;;;;17.12;58.59;100846.84;5071957;28;20031;-70
2023/07/03 03:52:10;;;;;;;18.90;5.38;;;;;;;17.18;58.60;100842.84;5068061;28;20170;-71
2023/07/03 03:54:36;;;;;;;22.08;5.53;;;;;;;17.09;58.76;100847.41;5062818;28;20575;-71
2023/07/03 03:57:01;;;;;;;30.15;6.03;;;;;;;17.04;59.04;100848.31;5069690;28;20444;-71
2023/07/03 03:59:26;;;;;;;22.13;5.68;;;;;;;17.08;58.93;100851.38;5066027;28;20044;-71
2023/07/03 04:01:52;;;;;;;24.98;6.43;;;;;;;17.12;58.95;100846.84;5070293;28;20081;-70
2023/07/03 04:04:17;;;;;;;23.80;6.03;;;;;;;17.13;59.13;100854.09;5069821;28;20089;-70
2023/07/03 04:06:43;;;;;;;24.27;6.05;;;;;;;17.08;59.34;100859.78;5069792;28;20111;-71
2023/07/03 04:09:09;;;;;;;23.30;7.10;;;;;;;17.08;59.48;100860.59;5071176;28;20029;-70
2023/07/03 04:11:35;;;;;;;26.33;6.43;;;;;;;17.06;59.57;100856.44;5068012;28;20028;-70
2023/07/03 04:14:00;;;;;;;25.23;6.28;;;;;;;17.16;59.34;100857.16;5051001;28;20044;-69
2023/07/03 04:16:28;;;;;;;24.58;6.28;;;;;;;17.15;59.27;100852.69;5050421;28;20045;-70
2023/07/03 04:18:54;;;;;;;27.05;6.35;;;;;;;17.12;59.63;100850.47;5051897;28;20389;-70
2023/07/03 04:21:19;;;;;;;23.50;6.07;;;;;;;17.09;59.65;100859.47;5050997;28;20032;-71
2023/07/03 04:23:44;;;;;;;25.90;6.43;;;;;;;17.08;59.80;100851.38;5058025;28;20036;-70
2023/07/03 04:26:10;;;;;;;25.67;6.80;;;;;;;17.16;59.82;100853.50;5059228;28;20028;-70
2023/07/03 04:28:35;;;;;;;27.38;5.95;;;;;;;17.19;59.89;100858.53;5051229;28;20027;-71
2023/07/03 04:31:02;;;;;;;26.23;5.95;;;;;;;17.24;59.84;100854.84;5069839;28;20043;-71
2023/07/03 04:33:28;;;;;;;25.83;5.93;;;;;;;17.17;59.96;100843.97;5066522;28;20063;-71
2023/07/03 04:35:53;;;;;;;29.27;6.38;;;;;;;17.12;60.21;100864.50;5060176;28;20121;-71
2023/07/03 04:38:18;;;;;;;26.95;6.47;;;;;;;17.20;59.70;100857.41;5050960;28;20025;-71
2023/07/03 04:40:45;;;;;;;25.23;6.15;;;;;;;17.23;60.03;100864.38;5058088;28;20035;-71
2023/07/03 04:43:11;;;;;;;26.88;5.95;;;;;;;17.14;60.35;100862.25;5070274;28;20476;-70
2023/07/03 04:45:45;;;;;;;27.88;6.30;;;;;;;17.11;60.38;100862.81;5069805;28;20052;-71
2023/07/03 04:48:10;;;;;;;27.02;7.22;;;;;;;17.10;60.47;100860.31;5070009;28;20024;-71
2023/07/03 04:50:36;;;;;;;27.08;6.88;;;;;;;17.11;60.49;100862.81;5063930;28;20036;-71
2023/07/03 04:53:03;;;;;;;29.25;7.03;;;;;;;17.15;60.55;100857.47;5050941;28;20025;-71
2023/07/03 04:55:29;;;;;;;23.40;6.07;;;;;;;17.15;60.51;100866.72;5054876;28;20039;-71
2023/07/03 04:57:54;;;;;;;25.58;5.85;;;;;;;17.16;60.59;100861.94;5069867;28;20044;-71
2023/07/03 05:00:20;;;;;;;26.05;6.60;;;;;;;17.14;60.58;100878.22;5061192;28;20040;-71
2023/07/03 05:02:47;;;;;;;22.67;6.30;;;;;;;17.13;60.70;100883.00;5055271;28;20028;-71
2023/07/03 05:05:14;;;;;;;26.40;6.13;;;;;;;17.13;60.68;100879.34;5061454;28;20067;-70
2023/07/03 05:07:41;;;;;;;23.60;6.00;;;;;;;17.18;60.70;100873.69;5069347;28;20089;-71
2023/07/03 05:10:08;;;;;;;22.42;5.95;;;;;;;17.22;60.63;100880.38;5061100;28;20493;-70
2023/07/03 05:12:34;;;;;;;23.80;6.25;;;;;;;17.26;60.52;100889.06;5064790;28;20400;-70
2023/07/03 05:15:00;;;;;;;24.10;5.90;;;;;;;17.25;60.81;100888.22;5070259;28;20048;-71
2023/07/03 05:17:25;;;;;;;30.52;6.82;;;;;;;17.29;60.55;100888.44;5068479;28;20028;-70
2023/07/03 05:19:50;;;;;;;22.55;6.13;;;;;;;17.36;60.60;100888.91;5066617;28;20040;-70
2023/07/03 05:22:18;;;;;;;27.33;6.45;;;;;;;17.45;60.42;100891.91;5052749;28;20043;-70
2023/07/03 05:24:44;;;;;;;23.38;6.03;;;;;;;17.50;60.34;100897.47;5057578;28;20032;-70
2023/07/03 05:27:09;;;;;;;26.10;6.28;;;;;;;17.58;60.04;100894.84;5070213;28;20507;-70
2023/07/03 05:29:37;;;;;;;26.90;6.82;;;;;;;17.67;59.78;100898.66;5070679;28;20021;-70
2023/07/03 05:32:03;;;;;;;24.23;6.22;;;;;;;17.72;59.64;100910.94;5069958;28;20082;-71
2023/07/03 05:34:29;;;;;;;22.73;5.20;;;;;;;17.74;59.44;100909.53;5070270;28;20024;-71
2023/07/03 05:36:56;;;;;;;22.85;6.22;;;;;;;17.68;59.78;100902.28;5050384;28;20112;-70
2023/07/03 05:39:21;;;;;;;20.50;5.93;;;;;;;17.70;59.76;100905.66;5043537;28;20031;-71
2023/07/03 05:41:47;;;;;;;31.20;6.32;;;;;;;17.65;59.60;100902.91;5045917;28;20395;-71
2023/07/03 05:44:12;;;;;;;24.67;6.25;;;;;;;17.65;59.64;100900.09;5046493;28;20040;-72
2023/07/03 05:46:37;;;;;;;24.00;6.25;;;;;;;17.65;59.91;100900.94;5045319;28;20961;-71
2023/07/03 05:49:03;;;;;;;22.02;6.35;;;;;;;17.69;59.56;100906.78;5049295;28;20025;-71
2023/07/03 05:51:28;;;;;;;23.20;5.85;;;;;;;17.69;59.53;100908.75;5058902;28;20045;-71
2023/07/03 05:53:53;;;;;;;20.85;5.70;;;;;;;17.64;59.60;100915.25;5059398;28;20035;-71
2023/07/03 05:56:19;;;;;;;19.13;5.95;;;;;;;17.71;59.47;100915.72;5070543;28;20486;-71
2023/07/03 05:58:45;;;;;;;21.75;5.72;;;;;;;17.70;59.47;100910.44;5088687;28;20050;-71
2023/07/03 06:01:10;;;;;;;26.88;6.20;;;;;;;17.69;59.82;100912.41;5092612;28;20024;-71
2023/07/03 06:03:36;;;;;;;26.58;5.82;;;;;;;17.74;59.56;100909.53;5080713;28;20063;-71
2023/07/03 06:06:04;;;;;;;20.13;6.43;;;;;;;17.73;59.56;100904.22;5073741;28;20033;-71
2023/07/03 06:08:29;;;;;;;21.05;6.45;;;;;;;17.77;59.52;100911.78;5072915;28;20147;-70
2023/07/03 06:10:55;;;;;;;22.00;5.63;;;;;;;17.76;59.19;100904.47;5071359;28;20108;-71
2023/07/03 06:13:20;;;;;;;24.48;6.10;;;;;;;17.76;59.53;100910.06;5063230;28;20069;-71
2023/07/03 06:15:45;;;;;;;21.65;5.65;;;;;;;17.80;59.34;100911.19;5072507;28;20403;-71
2023/07/03 06:18:11;;;;;;;27.10;5.97;;;;;;;17.76;59.32;100907.25;5074020;28;20021;-71
2023/07/03 06:20:37;;;;;;;21.00;5.45;;;;;;;17.81;59.24;100903.59;5053936;28;20472;-71
2023/07/03 06:23:03;;;;;;;22.80;5.60;;;;;;;17.79;59.13;100903.03;5053131;28;20428;-71
2023/07/03 06:25:28;;;;;;;23.38;5.90;;;;;;;17.81;59.42;100909.19;5062419;28;20087;-71
2023/07/03 06:27:53;;;;;;;24.73;6.07;;;;;;;17.81;59.45;100912.00;5066684;28;20107;-72
2023/07/03 06:30:19;;;;;;;22.30;6.05;;;;;;;17.81;59.31;100915.66;5062968;28;20033;-71
2023/07/03 06:32:45;;;;;;;20.35;5.63;;;;;;;17.86;58.73;100912.75;5059331;28;20116;-71
2023/07/03 06:35:10;;;;;;;23.15;6.03;;;;;;;17.88;58.84;100915.25;5093417;28;20035;-71
2023/07/03 06:37:35;;;;;;;17.90;5.55;;;;;;;17.91;59.10;100917.47;5077486;28;20060;-71
2023/07/03 06:40:01;;;;;;;27.17;6.07;;;;;;;17.86;59.12;100912.75;5065392;28;20040;-71
2023/07/03 06:42:27;;;;;;;20.65;5.72;;;;;;;17.91;58.95;100915.50;5067062;28;20043;-71
2023/07/03 06:44:52;;;;;;;19.13;5.38;;;;;;;17.95;58.46;100920.50;5056116;28;20037;-71
2023/07/03 06:47:17;;;;;;;26.20;5.38;;;;;;;17.91;58.24;100909.03;5053278;28;20013;-71
2023/07/03 06:49:43;;;;;;;20.30;5.28;;;;;;;17.95;58.41;100909.28;5059359;28;20162;-70
2023/07/03 06:52:11;;;;;;;24.45;5.78;;;;;;;17.94;58.23;100904.81;5065504;28;20025;-68
2023/07/03 06:54:37;;;;;;;20.13;4.88;;;;;;;17.98;58.11;100901.09;5060669;28;20602;-70
2023/07/03 06:57:03;;;;;;;15.48;4.78;;;;;;;18.00;57.98;100900.78;5068737;28;20025;-70
2023/07/03 06:59:28;;;;;;;20.70;5.90;;;;;;;17.94;58.08;100897.22;5069572;28;20047;-70
2023/07/03 07:01:53;;;;;;;20.35;5.28;;;;;;;17.97;58.10;100907.84;5054364;28;20029;-69
2023/07/03 07:04:19;;;;;;;16.92;5.13;;;;;;;17.97;58.16;100905.03;5060490;28;20033;-71
2023/07/03 07:06:44;;;;;;;21.02;5.43;;;;;;;17.99;57.98;100918.78;5069352;28;20052;-72
2023/07/03 07:09:09;;;;;;;24.95;5.75;;;;;;;18.08;57.46;100933.84;5069590;28;20051;-72
2023/07/03 07:11:36;;;;;;;24.25;5.30;;;;;;;18.09;57.29;100932.69;5063577;28;20020;-72
2023/07/03 07:14:04;;;;;;;21.20;5.32;;;;;;;18.10;57.16;100925.94;5057145;28;20543;-68
2023/07/03 07:16:34;;;;;;;17.23;4.80;;;;;;;18.09;57.29;100933.53;5072091;28;20040;-70
2023/07/03 07:19:02;;;;;;;21.20;5.30;;;;;;;18.19;56.48;100924.09;5064747;28;20041;-72
2023/07/03 07:21:33;;;;;;;16.45;4.78;;;;;;;18.28;55.84;100924.28;5056039;28;20062;-69
2023/07/03 07:24:01;;;;;;;18.75;5.45;;;;;;;18.30;55.67;100931.25;5068998;28;20037;-69
2023/07/03 07:26:33;;;;;;;22.50;5.47;;;;;;;18.37;55.57;100933.69;5068709;28;20108;-70
2023/07/03 07:29:03;;;;;;;12.93;4.43;;;;;;;18.44;55.30;100927.72;5053875;28;20480;-72
2023/07/03 07:31:29;;;;;;;16.80;4.28;;;;;;;18.42;55.28;100925.19;5059377;28;20437;-67
2023/07/03 07:33:55;;;;;;;15.23;4.60;;;;;;;18.53;55.22;100920.25;5065424;28;20116;-67
2023/07/03 07:36:22;;;;;;;17.95;4.78;;;;;;;18.69;54.97;100924.47;5071479;28;20028;-72
2023/07/03 07:38:54;;;;;;;15.32;4.82;;;;;;;18.71;54.32;100927.88;5064264;28;20037;-70
2023/07/03 07:41:20;;;;;;;20.25;5.00;;;;;;;18.77;54.47;100925.78;5052198;28;20053;-74
2023/07/03 07:43:47;;;;;;;17.42;5.40;;;;;;;18.91;54.45;100931.50;5063404;28;20078;-70
2023/07/03 07:46:13;;;;;;;20.05;4.75;;;;;;;19.00;54.30;100935.25;5068170;28;20381;-69
2023/07/03 07:48:38;;;;;;;19.60;5.07;;;;;;;19.09;54.02;100934.22;5069477;28;20031;-71
2023/07/03 07:51:09;;;;;;;20.45;4.80;;;;;;;19.11;53.62;100929.16;5068566;28;20063;-72
2023/07/03 07:53:35;;;;;;;17.90;4.53;;;;;;;19.09;52.92;100937.03;5068568;28;20468;-72
2023/07/03 07:56:00;;;;;;;20.27;4.55;;;;;;;19.10;52.81;100937.91;5050500;28;20036;-77
2023/07/03 07:58:26;;;;;;;17.33;4.50;;;;;;;19.07;52.29;100939.34;5067300;28;20464;-74
2023/07/03 08:00:53;;;;;;;15.20;4.00;;;;;;;19.07;51.83;100947.78;5069731;28;20031;-72
2023/07/03 08:03:18;;;;;;;13.45;4.10;;;;;;;19.13;51.44;100942.88;5076434;28;20024;-72
2023/07/03 08:05:44;;;;;;;14.07;4.28;;;;;;;19.16;50.93;100947.06;5081549;28;20537;-71
2023/07/03 08:08:09;;;;;;;18.10;4.28;;;;;;;19.10;51.32;100950.00;5068826;28;20050;-69
2023/07/03 08:10:34;;;;;;;15.02;4.15;;;;;;;19.17;51.75;100958.00;5062381;28;20052;-69
2023/07/03 08:13:00;;;;;;;17.23;3.60;;;;;;;19.20;50.80;100946.16;5071001;28;20033;-71
2023/07/03 08:15:26;;;;;;;13.57;3.88;;;;;;;19.21;50.23;100953.44;5068161;28;20114;-72
2023/07/03 08:17:51;;;;;;;16.02;4.50;;;;;;;19.18;50.50;100964.47;5091543;28;20032;-71
2023/07/03 08:20:17;;;;;;;15.77;3.88;;;;;;;19.12;50.85;100958.94;5069834;28;20029;-69
2023/07/03 08:22:42;;;;;;;16.02;4.40;;;;;;;19.06;51.44;100956.50;5053218;28;20024;-75
2023/07/03 08:25:09;;;;;;;17.25;4.00;;;;;;;19.02;51.11;100961.09;5060983;28;20473;-75
2023/07/03 08:27:35;;;;;;;15.10;4.00;;;;;;;18.89;51.26;100963.53;5061442;28;20028;-74
2023/07/03 08:30:01;;;;;;;14.80;3.63;;;;;;;18.88;51.80;100967.50;5070262;28;20035;-75
2023/07/03 08:32:27;;;;;;;13.57;4.32;;;;;;;18.90;51.64;100970.00;5052520;28;20036;-74
2023/07/03 08:34:52;;;;;;;12.32;3.63;;;;;;;18.97;51.15;100969.63;5049428;28;20106;-65
2023/07/03 08:37:17;;;;;;;13.32;4.32;;;;;;;18.97;50.78;100964.81;5050740;28;20041;-68
2023/07/03 08:39:43;;;;;;;16.60;4.60;;;;;;;19.01;50.89;100973.50;5062255;28;20400;-67
2023/07/03 08:42:31;;;;;;;15.18;4.45;;;;;;;19.07;51.69;100977.91;5065144;28;20062;-75
2023/07/03 08:44:58;;;;;;;14.43;4.05;;;;;;;19.08;51.04;100977.56;5055901;28;20066;-73
2023/07/03 08:47:26;;;;;;;19.90;4.20;;;;;;;19.06;50.87;100973.41;5070446;28;20028;-76
2023/07/03 08:49:53;;;;;;;10.60;3.75;;;;;;;19.25;52.50;100979.81;5067495;28;20048;-76
2023/07/03 08:52:25;;;;;;;15.57;4.13;;;;;;;19.23;51.31;100981.28;5067669;28;20025;-76
2023/07/03 08:54:52;;;;;;;15.38;4.50;;;;;;;19.25;49.98;100977.00;5062891;28;20028;-76
2023/07/03 08:57:20;;;;;;;16.17;4.85;;;;;;;19.27;49.89;100973.91;5072508;28;20036;-75
2023/07/03 08:59:46;;;;;;;13.25;4.13;;;;;;;19.25;50.18;100974.19;5070536;28;20086;-65
2023/07/03 09:02:38;;;;;;;12.60;4.13;;;;;;;19.27;50.62;100973.91;5061097;28;20442;-66
2023/07/03 09:05:15;;;;;;;14.70;4.32;;;;;;;19.23;50.02;100973.66;5059748;28;20041;-75
2023/07/03 09:07:54;;;;;;;16.48;4.55;;;;;;;19.25;50.16;100977.00;5068763;28;20060;-75
2023/07/03 09:10:26;;;;;;;15.23;4.68;;;;;;;19.25;49.41;100982.63;5073441;28;20035;-75
2023/07/03 09:13:04;;;;;;;16.63;4.57;;;;;;;19.28;49.06;100979.19;5058392;28;20317;-75
2023/07/03 09:15:48;;;;;;;13.48;4.32;;;;;;;19.24;49.20;100972.53;5070184;28;20043;-75
2023/07/03 09:18:17;;;;;;;16.33;4.43;;;;;;;19.23;49.28;100967.22;5068813;28;20063;-75
2023/07/03 09:20:43;;;;;;;15.43;4.40;;;;;;;19.30;48.73;100962.84;5068496;28;20095;-75
2023/07/03 09:23:20;;;;;;;11.57;4.55;;;;;;;19.39;49.28;100968.59;5070090;28;20024;-75
2023/07/03 09:25:54;;;;;;;21.20;5.15;;;;;;;19.43;49.71;100971.63;5073789;28;20499;-68
2023/07/03 09:28:20;;;;;;;18.17;5.20;;;;;;;19.43;49.17;100960.38;5060144;28;20057;-74
2023/07/03 09:30:46;;;;;;;16.90;4.68;;;;;;;19.35;48.35;100967.56;5054019;28;20040;-74
2023/07/03 09:33:12;;;;;;;14.38;5.03;;;;;;;19.35;48.40;100970.38;5049376;28;20032;-76
2023/07/03 09:35:40;;;;;;;17.20;5.35;;;;;;;19.35;48.91;100981.63;5054280;28;20036;-75
2023/07/03 09:38:12;;;;;;;11.05;4.45;;;;;;;19.37;49.34;100974.56;5067346;28;20471;-75
2023/07/03 09:40:41;;;;;;;16.65;5.05;;;;;;;19.54;48.96;100973.13;5066022;28;20021;-75
2023/07/03 09:43:21;;;;;;;15.70;5.20;;;;;;;19.65;48.81;100980.25;5068738;28;20399;-75
2023/07/03 09:45:48;;;;;;;15.82;5.20;;;;;;;19.76;49.23;100976.06;5069626;28;20497;-74
2023/07/03 09:48:24;;;;;;;15.65;4.80;;;;;;;19.92;50.43;100973.78;5065131;28;20179;-74
2023/07/03 09:50:50;;;;;;;12.80;4.20;;;;;;;20.19;52.10;100972.94;5076411;28;20032;-73
2023/07/03 09:53:22;;;;;;;9.45;4.10;;;;;;;20.41;50.92;100969.34;5057195;28;20155;-74
2023/07/03 09:55:58;;;;;;;9.25;3.70;;;;;;;20.62;49.76;100974.56;5057143;28;20124;-73
2023/07/03 09:58:26;;;;;;;11.55;4.65;;;;;;;20.73;48.03;100976.81;5065070;28;20365;-73
2023/07/03 10:00:54;;;;;;;12.55;4.47;;;;;;;20.75;48.31;100980.16;5070958;28;20119;-74
2023/07/03 10:03:31;;;;;;;19.63;5.18;;;;;;;20.67;46.14;100971.59;5070507;28;20475;-75
2023/07/03 10:06:20;;;;;;;11.48;4.07;;;;;;;20.75;47.49;100979.31;5072169;28;20086;-75
2023/07/03 10:08:52;;;;;;;15.63;4.50;;;;;;;20.65;45.32;100969.13;5078331;28;20060;-75
2023/07/03 10:11:24;;;;;;;12.50;5.00;;;;;;;20.74;46.20;100972.00;5064293;28;20032;-76
2023/07/03 10:13:53;;;;;;;12.48;4.80;;;;;;;20.75;46.94;100977.34;5068011;28;20021;-75
2023/07/03 10:16:23;;;;;;;13.68;4.43;;;;;;;20.93;46.99;100977.47;5089282;28;20526;-75
2023/07/03 10:18:51;;;;;;;15.70;4.78;;;;;;;20.93;43.24;100981.13;5093745;28;20047;-75
2023/07/03 10:21:22;;;;;;;15.05;4.25;;;;;;;21.01;43.67;100973.88;5084111;28;20475;-74
2023/07/03 10:23:49;;;;;;;11.82;4.07;;;;;;;21.03;42.43;100985.69;5053564;28;20394;-75
2023/07/03 10:26:29;;;;;;;13.05;4.32;;;;;;;20.97;43.80;100993.44;5052436;28;20025;-74
2023/07/03 10:29:03;;;;;;;11.93;4.13;;;;;;;20.90;42.28;100995.88;5056701;28;20025;-75
2023/07/03 10:31:46;;;;;;;9.82;3.42;;;;;;;20.92;44.98;100998.38;5091197;28;20468;-75
2023/07/03 10:34:48;;;;;;;11.32;3.83;;;;;;;20.83;44.08;100992.69;5055492;28;20037;-75
2023/07/03 10:37:17;;;;;;;11.73;3.72;;;;;;;20.82;44.71;101003.09;5047746;28;20063;-75
2023/07/03 10:40:24;;;;;;;10.40;4.30;;;;;;;20.83;44.52;100996.31;5071178;28;20042;-75
2023/07/03 10:42:52;;;;;;;9.40;3.63;;;;;;;;;;5053618;28;20087;-71
2023/07/03 10:45:19;;;;;;;11.15;3.80;;;;;;;20.78;43.85;100999.25;5054107;28;20052;-74
2023/07/03 10:48:03;;;;;;;12.70;4.40;;;;;;;20.67;43.94;100999.81;5058936;28;20066;-73
2023/07/03 10:50:36;;;;;;;13.02;4.13;;;;;;;20.63;42.87;101004.41;5059050;28;20480;-73
2023/07/03 10:53:28;;;;;;;16.30;3.90;;;;;;;20.57;42.23;101006.53;5053209;28;20060;-74
2023/07/03 10:56:27;;;;;;;11.73;4.27;;;;;;;20.78;43.94;101012.53;5051950;28;20033;-73
2023/07/03 10:59:15;;;;;;;14.35;3.63;;;;;;;20.85;42.69;101004.47;5060788;28;20290;-74
2023/07/03 11:01:40;;;;;;;8.80;3.08;;;;;;;20.89;40.25;100997.03;5056953;28;20028;-71
2023/07/03 11:04:11;;;;;;;9.95;3.17;;;;;;;20.99;41.27;100995.97;5056364;28;20033;-71
2023/07/03 11:06:48;;;;;;;11.63;3.47;;;;;;;21.10;41.56;100991.69;5064123;28;20032;-73
2023/07/03 11:09:27;;;;;;;11.40;3.53;;;;;;;21.20;42.23;100997.09;5051594;28;20037;-73
2023/07/03 11:12:03;;;;;;;11.55;3.30;;;;;;;21.19;39.93;100988.97;5072891;28;20361;-74
2023/07/03 11:14:41;;;;;;;8.55;3.08;;;;;;;21.35;42.07;100992.25;5060268;28;20045;-73
2023/07/03 11:17:35;;;;;;;11.65;3.38;;;;;;;21.31;40.25;100987.22;5051428;28;20068;-71
2023/07/03 11:20:30;;;;;;;9.88;3.10;;;;;;;21.25;40.38;101004.59;5065544;28;20069;-72
2023/07/03 11:22:56;;;;;;;8.90;3.05;;;;;;;21.21;40.55;100993.13;5059102;28;20071;-72
2023/07/03 11:25:33;;;;;;;5.10;2.40;;;;;;;21.12;39.72;100997.88;5053480;28;20029;-72